Izmir, Turkey
Current Conditions -  °F | °C
As of 6:20 PM on Friday 24 Oct 2014 (Local Time) from LTBJ Reporting Station
Thunderstorm Thunderstorm  
Wind Chill: 63°   Ceiling: 10000
Heat Index: 63°   Visibility: 6mi
Dew Point: 59°   Wind: 6mph
Humidity: 88%   Direction: 230°SW
Pressure: 29.77"   Gusts: NA
Location:  38.43°N, 27.15°E
Report Text: LTBJ 241520Z 23005KT 190V260 9999 -TSRA FEW015CB SCT030 BKN100 17/15 Q1008 RESHRA BECMG TL1620 16012KT NSW
Loading
Personal Weather Stations






























Interactive Weather Map
Tropical Storm Tracking
New forecast layout! Learn more

10-Day Weather Forecast

Advertisements
Track Severe Weather on mobile